Latest Coastal Weather Observations for Gabo Island

IDT60701

Issued at 2:42 pm EDT Monday 20 November 2017 (issued every 10 minutes, with the page automatically refreshed every 10 minutes)

About coastal observations | Map of coastal stations | Coastal observations for TAS | Marine services | Other Formats
Station Details ID: 084016 Name: GABO ISLAND LIGHTHOUSE Lat: -37.57 Lon: 149.92 Height: 15.2 m
Data from the previous 72 hours. | See also: Recent months at Gabo Island
Date/Time
EDT
Temp
°C
Wind Pressure Rain since
9am
mm
Weather Cloud Vis
km
Sea
Height
m
Swell
Dir  Spd
kts
Gust
kts
hPa Trend Height
m
Period
s
Dir
20/02:30pm 18.9 NE 19 21 1024.5 - 0.0 - - - - - - -
20/02:00pm 18.4 NE 18 19 1025.0 - 0.0 - - - - - - -
20/01:30pm 18.3 NE 18 20 1025.3 - 0.0 - - - - - - -
20/01:00pm 18.7 NE 19 21 1025.4 - 0.0 - - - - - - -
20/12:30pm 18.9 NE 21 22 1025.4 - 0.0 - - - - - - -
20/12:00pm 18.2 NE 19 21 1025.4 - 0.0 - - - - - - -
20/11:30am 18.9 NE 19 23 1025.3 - 0.0 - - - - - - -
20/11:00am 19.5 NE 18 22 1025.7 - 0.0 - - - - - - -
20/10:30am 18.9 NE 17 21 1025.8 - 0.0 - - - - - - -
20/10:00am 18.4 NE 16 19 1026.0 - 0.0 - - - - - - -
20/09:30am 17.5 NE 16 18 1025.7 - 0.0 - - - - - - -
20/09:00am 17.9 NNE 13 15 1026.0 - 0.0 Fine Mostly clear 20 1 1.0 - -
20/08:30am 16.8 NE 13 13 1026.3 - 0.0 - - - - - - -
20/08:00am 16.6 NE 13 14 1025.9 - 0.0 - - - - - - -
20/07:30am 16.4 NE 9 10 1025.7 - 0.0 - - - - - - -
20/07:00am 15.9 ENE 10 11 1025.3 - 0.0 - - - - - - -
20/06:30am 14.8 ENE 7 9 1024.9 - 0.0 - - - - - - -
20/06:00am 15.2 NNE 7 8 1024.6 - 0.0 - - - - - - -
20/05:30am 16.0 NNE 9 11 1024.5 - 0.0 - - - - - - -
20/05:00am 16.2 N 9 11 1024.4 - 0.0 - - - - - - -
20/04:30am 15.2 NNE 6 8 1024.4 - 0.0 - - - - - - -
20/04:00am 15.3 NNE 8 10 1024.2 - 0.0 - - - - - - -
20/03:30am 15.6 NE 9 10 1024.3 - 0.0 - - - - - - -
20/03:00am 16.0 NE 10 11 1024.2 - 0.0 Fine Partly cloudy 20 1 1.0 - -
20/02:30am 15.5 NNE 7 10 1024.4 - 0.0 - - - - - - -
20/02:00am 15.7 NNE 8 11 1024.4 - 0.0 - - - - - - -
20/01:30am 16.1 NE 11 12 1024.3 - 0.0 - - - - - - -
20/01:00am 16.4 NNE 13 15 1024.3 - 0.0 - - - - - - -
20/12:30am 16.5 NNE 11 14 1024.6 - 0.0 - - - - - - -
20/12:00am 16.7 NNE 11 14 1024.8 - 0.0 - - - - - - -
 
Date/Time
EDT
Temp
°C
Wind Pressure Rain since
9am
mm
Weather Cloud Vis
km
Sea
Height
m
Swell
Dir  Spd
kts
Gust
kts
hPa Trend Height
m
Period
s
Dir
19/11:30pm 16.3 NNE 12 15 1024.9 - 0.0 - - - - - - -
19/11:00pm 16.2 NE 13 15 1024.9 - 0.0 - - - - - - -
19/10:30pm 16.3 NE 13 15 1025.1 - 0.0 - - - - - - -
19/10:00pm 16.3 NE 14 16 1025.2 - 0.0 - - - - - - -
19/09:30pm 16.3 NE 12 13 1025.4 - 0.0 - - - - - - -
19/09:00pm 16.4 NE 14 15 1025.2 - 0.0 Fine Mostly cloudy 30 1 1.0 - -
19/08:30pm 16.6 NE 14 17 1024.8 - 0.0 - - - - - - -
19/08:00pm 16.7 NE 16 17 1024.6 - 0.0 - - - - - - -
19/07:30pm 17.0 NE 13 15 1024.6 - 0.0 - - - - - - -
19/07:00pm 17.2 NE 13 14 1024.6 - 0.0 - - - - - - -
19/06:30pm 17.6 NE 14 17 1024.1 - 0.0 - - - - - - -
19/06:00pm 17.8 ENE 19 21 1023.7 - 0.0 - - - - - - -
19/05:30pm 17.5 ENE 14 15 1023.9 - 0.0 - - - - - - -
19/05:00pm 17.6 ENE 14 15 1023.9 - 0.0 - - - - - - -
19/04:30pm 18.5 NE 18 20 1023.6 - 0.0 - - - - - - -
19/04:00pm 18.5 NE 18 19 1023.7 - 0.0 - - - - - - -
19/03:30pm 18.9 NE 17 19 1024.0 - 0.0 - - - - - - -
19/03:00pm 18.0 ENE 16 18 1024.3 - 0.0 Fine Partly cloudy 30 1 1.0 - -
19/02:30pm 18.2 NE 15 16 1024.6 - 0.0 - - - - - - -
19/02:00pm 19.0 NE 16 17 1024.6 - 0.0 - - - - - - -
19/01:30pm 18.6 NE 18 21 1024.5 - 0.0 - - - - - - -
19/01:00pm 18.7 NE 18 20 1024.4 - 0.0 - - - - - - -
19/12:30pm 18.4 NE 17 20 1024.2 - 0.0 - - - - - - -
19/12:00pm 18.5 NE 18 20 1024.1 - 0.0 - - - - - - -
19/11:30am 19.0 NE 18 20 1024.1 - 0.0 - - - - - - -
19/11:00am 19.7 NE 16 20 1024.1 - 0.0 - - - - - - -
19/10:30am 19.0 NE 14 16 1024.0 - 0.0 - - - - - - -
19/10:00am 18.9 NNE 14 16 1023.8 - 0.0 - - - - - - -
19/09:30am 17.6 ENE 14 15 1024.0 - 0.0 - - - - - - -
19/09:00am 18.0 NE 13 15 1023.9 - 0.0 Fine Mostly cloudy 20 1 1.0 - -
19/08:30am 17.4 NNE 13 16 1024.0 - 0.0 - - - - - - -
19/08:00am 17.5 NNE 6 8 1023.8 - 0.0 - - - - - - -
19/07:30am 16.9 N 7 9 1023.6 - 0.0 - - - - - - -
19/07:00am 16.1 N 6 8 1023.4 - 0.0 - - - - - - -
19/06:30am 15.1 NNE 8 8 1023.1 - 0.0 - - - - - - -
19/06:00am 14.5 NNE 7 9 1022.9 - 0.0 - - - - - - -
19/05:30am 14.6 NNE 8 9 1022.6 - 0.0 - - - - - - -
19/05:00am 14.6 NNE 5 7 1022.5 - 0.0 - - - - - - -
19/04:30am 15.2 NNE 5 7 1022.4 - 0.0 - - - - - - -
19/04:00am 15.4 N 5 7 1022.3 - 0.0 - - - - - - -
19/03:30am 16.6 N 9 11 1022.3 - 0.0 - - - - - - -
19/03:00am 16.6 NNE 12 16 1022.2 - 0.0 Fine Partly cloudy 30 1 1.0 - -
19/02:30am 16.2 ENE 14 16 1022.1 - 0.0 - - - - - - -
19/02:00am 16.1 NE 14 15 1022.3 - 0.0 - - - - - - -
19/01:30am 15.7 NE 13 14 1022.4 - 0.0 - - - - - - -
19/01:00am 15.9 NE 14 16 1022.2 - 0.0 - - - - - - -
19/12:30am 15.7 NNE 9 11 1022.7 - 0.0 - - - - - - -
19/12:00am 16.2 NNE 10 11 1022.8 - 0.0 - - - - - - -
 
Date/Time
EDT
Temp
°C
Wind Pressure Rain since
9am
mm
Weather Cloud Vis
km
Sea
Height
m
Swell
Dir  Spd
kts
Gust
kts
hPa Trend Height
m
Period
s
Dir
18/11:30pm 16.5 NE 13 18 1022.7 - 0.0 - - - - - - -
18/11:00pm 15.9 NNE 9 10 1022.8 - 0.0 - - - - - - -
18/10:30pm 16.1 NNE 10 12 1022.8 - 0.0 - - - - - - -
18/10:00pm 16.1 NNE 9 11 1022.9 - 0.0 - - - - - - -
18/09:30pm 16.1 NNE 10 11 1022.5 - 0.0 - - - - - - -
18/09:00pm 16.1 NNE 9 11 1022.0 - 0.0 Fine Mostly clear 20 1 1.0 - -
18/08:30pm 16.4 NNE 10 12 1021.9 - 0.0 - - - - - - -
18/08:00pm 16.2 NNE 12 14 1021.7 - 0.0 - - - - - - -
18/07:30pm 16.6 NE 16 18 1021.2 - 0.0 - - - - - - -
18/07:00pm 17.1 NNE 14 17 1021.1 - 0.0 - - - - - - -
18/06:30pm 17.4 NE 20 23 1020.7 - 0.0 - - - - - - -
18/06:00pm 17.5 NE 19 22 1020.5 - 0.0 - - - - - - -
18/05:30pm 17.7 NE 20 22 1020.4 - 0.0 - - - - - - -
18/05:00pm 18.0 NE 18 20 1020.5 - 0.0 - - - - - - -
18/04:30pm 17.6 NE 20 22 1020.6 - 0.0 - - - - - - -
18/04:00pm 17.9 NE 20 22 1020.7 - 0.0 - - - - - - -
18/03:30pm 18.4 NE 21 23 1020.8 - 0.0 - - - - - - -
18/03:00pm 18.0 NE 22 24 1020.8 - 0.0 Fine Partly cloudy 20 2 1.0 - -
18/02:30pm 18.7 NE 22 25 1021.0 - 0.0 - - - - - - -
18/02:00pm 18.5 NE 24 26 1020.9 - 0.0 - - - - - - -
18/01:30pm 18.6 NE 22 24 1021.0 - 0.0 - - - - - - -
18/01:00pm 18.2 NE 21 23 1021.2 - 0.0 - - - - - - -
18/12:30pm 18.1 NE 22 24 1021.4 - 0.0 - - - - - - -
18/12:00pm 18.0 NE 22 25 1021.4 - 0.0 - - - - - - -
18/11:30am 18.1 NE 20 22 1021.7 - 0.0 - - - - - - -
18/11:00am 18.0 NE 22 24 1021.7 - 0.0 - - - - - - -
18/10:30am 17.5 NE 19 21 1021.8 - 0.0 - - - - - - -
18/10:00am 17.8 NE 20 22 1021.6 - 0.0 - - - - - - -
18/09:30am 17.2 NE 19 21 1021.7 - 0.0 - - - - - - -
18/09:00am 17.0 NE 18 19 1021.6 - 47.6 Mist Mostly cloudy 10 2 1.0 - -
18/08:30am 17.2 NE 18 19 1021.6 - 47.6 - - - - - - -
18/08:00am 16.8 NE 17 18 1021.3 - 47.6 - - - - - - -
18/07:30am 16.9 NE 16 18 1020.9 - 47.6 - - - - - - -
18/07:00am 16.2 NE 16 17 1020.5 - 47.6 - - - - - - -
18/06:30am 16.2 NE 14 16 1020.3 - 47.6 - - - - - - -
18/06:00am 15.8 NE 13 15 1019.8 - 47.6 - - - - - - -
18/05:30am 15.8 NE 12 14 1019.6 - 47.6 - - - - - - -
18/05:00am 15.9 NE 15 17 1019.0 - 47.6 - - - - - - -
18/04:30am 15.9 NE 14 15 1019.0 - 47.6 - - - - - - -
18/04:00am 16.0 NNE 16 18 1018.9 - 47.6 - - - - - - -
18/03:30am 16.0 NE 19 21 1018.7 - 47.2 - - - - - - -
18/03:00am 15.9 NE 19 21 1018.6 - 47.2 Fine Mostly clear 20 1 1.0 - -
18/02:30am 16.1 NE 18 21 1018.9 - 47.2 - - - - - - -
18/02:00am 16.3 NE 20 23 1018.7 - 47.2 - - - - - - -
18/01:30am 16.3 NE 21 24 1018.9 - 47.2 - - - - - - -
18/01:00am 16.1 NE 20 23 1018.9 - 47.2 - - - - - - -
18/12:30am 15.9 NE 18 20 1019.2 - 47.2 - - - - - - -
18/12:00am 15.9 NE 17 21 1019.1 - 47.2 - - - - - - -
 
Date/Time
EDT
Temp
°C
Wind Pressure Rain since
9am
mm
Weather Cloud Vis
km
Sea
Height
m
Swell
Dir  Spd
kts
Gust
kts
hPa Trend Height
m
Period
s
Dir
17/11:30pm 16.4 NNE 19 22 1019.2 - 47.2 - - - - - - -
17/11:00pm 16.5 NNE 17 22 1019.4 - 47.2 - - - - - - -
17/10:30pm 16.2 NNE 15 17 1019.2 - 47.2 - - - - - - -
17/10:00pm 17.1 NNE 16 22 1019.5 - 47.2 - - - - - - -
17/09:30pm 16.5 NNE 14 17 1019.4 - 47.2 - - - - - - -
17/09:00pm 16.0 NE 15 17 1019.0 - 47.2 Fine Partly cloudy 20 1 1.0 - -
17/08:30pm 16.0 NNE 13 15 1019.1 - 47.2 - - - - - - -
17/08:00pm 16.5 NNE 18 25 1018.8 - 47.2 - - - - - - -
17/07:30pm 16.7 NE 18 21 1018.5 - 47.2 - - - - - - -
17/07:00pm 16.8 NNE 20 24 1018.2 - 47.2 - - - - - - -
17/06:30pm 16.8 NE 21 25 1017.5 - 47.2 - - - - - - -
17/06:00pm 16.6 NE 26 30 1016.7 - 47.2 Recent precip. - - - - - -
17/05:30pm 16.6 NE 33 37 1015.6 - 47.0 - - - - - - -
17/05:00pm 16.9 NE 40 45 1014.9 - 46.2 - - - - - - -
17/04:57pm 16.9 NE 39 43 1015.1 - 45.8 - - - - - - -
17/04:31pm 16.8 NNE 24 35 1016.3 - 45.0 - - - - - - -
17/04:30pm 16.6 NNE 24 32 1016.5 - 45.0 - - - - - - -
17/04:00pm 15.9 NNE 20 23 1017.7 - 44.6 - - - - - - -
17/03:30pm 15.7 NNE 15 19 1018.3 - 44.2 - - - - - - -
17/03:00pm 16.2 NNE 20 25 1018.6 - 43.4 Recent precip. Cloudy 2 1 1.0 - -
17/02:53pm 16.5 NNE 20 26 1018.6 - 43.4 - - - - - - -

Other Formats:

Comma delimited format used in spreadsheet applications
http://www.bom.gov.au/fwo/IDT60701/IDT60701.94933.axf

JavaScript Object Notation format (JSON) in row-major order
http://www.bom.gov.au/fwo/IDT60701/IDT60701.94933.json